sensor_id;sensor_type;location;lat;lon;timestamp;temperature;humidity
20479;DHT22;10398;52.490;13.434;2022-10-30T00:01:01;16.80;99.90
20479;DHT22;10398;52.490;13.434;2022-10-30T00:03:26;16.80;99.90
20479;DHT22;10398;52.490;13.434;2022-10-30T00:05:52;16.80;99.90
20479;DHT22;10398;52.490;13.434;2022-10-30T00:08:20;16.80;99.90
20479;DHT22;10398;52.490;13.434;2022-10-30T00:10:47;16.70;99.90
20479;DHT22;10398;52.490;13.434;2022-10-30T00:13:14;16.70;99.90
20479;DHT22;10398;52.490;13.434;2022-10-30T00:15:46;16.70;99.90
20479;DHT22;10398;52.490;13.434;2022-10-30T00:18:11;16.60;99.90
20479;DHT22;10398;52.490;13.434;2022-10-30T00:20:37;16.60;99.90
20479;DHT22;10398;52.490;13.434;2022-10-30T00:23:03;16.50;99.90
20479;DHT22;10398;52.490;13.434;2022-10-30T00:25:29;16.60;99.90
20479;DHT22;10398;52.490;13.434;2022-10-30T00:27:54;16.50;99.90
20479;DHT22;10398;52.490;13.434;2022-10-30T00:30:20;16.50;99.90
20479;DHT22;10398;52.490;13.434;2022-10-30T00:32:45;16.50;99.90
20479;DHT22;10398;52.490;13.434;2022-10-30T00:35:11;16.50;99.90
20479;DHT22;10398;52.490;13.434;2022-10-30T00:37:36;16.50;99.90
20479;DHT22;10398;52.490;13.434;2022-10-30T00:40:03;16.40;99.90
20479;DHT22;10398;52.490;13.434;2022-10-30T00:42:30;16.40;99.90
20479;DHT22;10398;52.490;13.434;2022-10-30T00:44:56;16.30;99.90
20479;DHT22;10398;52.490;13.434;2022-10-30T00:47:35;16.30;99.90
20479;DHT22;10398;52.490;13.434;2022-10-30T00:50:14;16.30;99.90
20479;DHT22;10398;52.490;13.434;2022-10-30T00:52:51;16.20;99.90
20479;DHT22;10398;52.490;13.434;2022-10-30T00:55:22;16.30;99.90
20479;DHT22;10398;52.490;13.434;2022-10-30T00:57:50;16.20;99.90
20479;DHT22;10398;52.490;13.434;2022-10-30T01:00:19;16.20;99.90
20479;DHT22;10398;52.490;13.434;2022-10-30T01:02:46;16.20;99.90
20479;DHT22;10398;52.490;13.434;2022-10-30T01:05:15;16.10;99.90
20479;DHT22;10398;52.490;13.434;2022-10-30T01:07:42;16.00;99.90
20479;DHT22;10398;52.490;13.434;2022-10-30T01:10:08;16.00;99.90
20479;DHT22;10398;52.490;13.434;2022-10-30T01:12:34;16.00;99.90
20479;DHT22;10398;52.490;13.434;2022-10-30T01:15:00;16.00;99.90
20479;DHT22;10398;52.490;13.434;2022-10-30T01:23:21;16.00;99.90
20479;DHT22;10398;52.490;13.434;2022-10-30T01:31:38;15.90;99.90
20479;DHT22;10398;52.490;13.434;2022-10-30T01:34:18;15.80;99.90
20479;DHT22;10398;52.490;13.434;2022-10-30T01:36:50;15.80;99.90
20479;DHT22;10398;52.490;13.434;2022-10-30T01:39:27;15.80;99.90
20479;DHT22;10398;52.490;13.434;2022-10-30T01:41:53;15.70;99.90
20479;DHT22;10398;52.490;13.434;2022-10-30T01:44:25;15.70;99.90
20479;DHT22;10398;52.490;13.434;2022-10-30T01:47:19;15.60;99.90
20479;DHT22;10398;52.490;13.434;2022-10-30T01:55:28;15.50;99.90
20479;DHT22;10398;52.490;13.434;2022-10-30T01:58:04;15.50;99.90
20479;DHT22;10398;52.490;13.434;2022-10-30T02:00:31;15.50;99.90
20479;DHT22;10398;52.490;13.434;2022-10-30T02:02:57;15.50;99.90
20479;DHT22;10398;52.490;13.434;2022-10-30T02:05:42;15.50;99.90
20479;DHT22;10398;52.490;13.434;2022-10-30T02:08:09;15.40;99.90
20479;DHT22;10398;52.490;13.434;2022-10-30T02:10:36;15.40;99.90
20479;DHT22;10398;52.490;13.434;2022-10-30T02:13:02;15.30;99.90
20479;DHT22;10398;52.490;13.434;2022-10-30T02:15:29;15.40;99.90
20479;DHT22;10398;52.490;13.434;2022-10-30T02:17:55;15.50;99.90
20479;DHT22;10398;52.490;13.434;2022-10-30T02:20:21;15.40;99.90
20479;DHT22;10398;52.490;13.434;2022-10-30T02:22:46;15.40;99.90
20479;DHT22;10398;52.490;13.434;2022-10-30T02:25:12;15.40;99.90
20479;DHT22;10398;52.490;13.434;2022-10-30T02:27:38;15.40;99.90
20479;DHT22;10398;52.490;13.434;2022-10-30T02:30:04;15.40;99.90
20479;DHT22;10398;52.490;13.434;2022-10-30T02:32:30;15.30;99.90
20479;DHT22;10398;52.490;13.434;2022-10-30T02:34:56;15.40;99.90
20479;DHT22;10398;52.490;13.434;2022-10-30T02:37:22;15.40;99.90
20479;DHT22;10398;52.490;13.434;2022-10-30T02:39:49;15.30;99.90
20479;DHT22;10398;52.490;13.434;2022-10-30T02:42:14;15.40;99.90
20479;DHT22;10398;52.490;13.434;2022-10-30T02:44:40;15.30;99.90
20479;DHT22;10398;52.490;13.434;2022-10-30T02:47:05;15.30;99.90
20479;DHT22;10398;52.490;13.434;2022-10-30T02:49:31;15.20;99.90
20479;DHT22;10398;52.490;13.434;2022-10-30T02:51:56;15.20;99.90
20479;DHT22;10398;52.490;13.434;2022-10-30T02:54:22;15.20;99.90
20479;DHT22;10398;52.490;13.434;2022-10-30T02:56:48;15.20;99.90
20479;DHT22;10398;52.490;13.434;2022-10-30T02:59:13;15.10;99.90
20479;DHT22;10398;52.490;13.434;2022-10-30T03:01:39;15.10;99.90
20479;DHT22;10398;52.490;13.434;2022-10-30T03:04:05;15.10;99.90
20479;DHT22;10398;52.490;13.434;2022-10-30T03:06:30;15.10;99.90
20479;DHT22;10398;52.490;13.434;2022-10-30T03:08:56;15.10;99.90
20479;DHT22;10398;52.490;13.434;2022-10-30T03:11:21;15.10;99.90
20479;DHT22;10398;52.490;13.434;2022-10-30T03:13:47;15.10;99.90
20479;DHT22;10398;52.490;13.434;2022-10-30T03:16:24;15.10;99.90
20479;DHT22;10398;52.490;13.434;2022-10-30T03:18:51;15.10;99.90
20479;DHT22;10398;52.490;13.434;2022-10-30T03:21:19;15.20;99.90
20479;DHT22;10398;52.490;13.434;2022-10-30T03:23:45;15.20;99.90
20479;DHT22;10398;52.490;13.434;2022-10-30T03:26:11;15.20;99.90
20479;DHT22;10398;52.490;13.434;2022-10-30T03:28:37;15.20;99.90
20479;DHT22;10398;52.490;13.434;2022-10-30T03:31:03;15.30;99.90
20479;DHT22;10398;52.490;13.434;2022-10-30T03:33:31;15.30;99.90
20479;DHT22;10398;52.490;13.434;2022-10-30T03:35:56;15.30;99.90
20479;DHT22;10398;52.490;13.434;2022-10-30T03:38:23;15.20;99.90
20479;DHT22;10398;52.490;13.434;2022-10-30T03:40:49;15.20;99.90
20479;DHT22;10398;52.490;13.434;2022-10-30T03:43:15;15.30;99.90
20479;DHT22;10398;52.490;13.434;2022-10-30T03:45:48;15.30;99.90
20479;DHT22;10398;52.490;13.434;2022-10-30T03:48:14;15.40;99.90
20479;DHT22;10398;52.490;13.434;2022-10-30T03:50:40;15.40;99.90
20479;DHT22;10398;52.490;13.434;2022-10-30T03:53:06;15.40;99.90
20479;DHT22;10398;52.490;13.434;2022-10-30T03:55:31;15.40;99.90
20479;DHT22;10398;52.490;13.434;2022-10-30T03:57:57;15.40;99.90
20479;DHT22;10398;52.490;13.434;2022-10-30T04:00:23;15.40;99.90
20479;DHT22;10398;52.490;13.434;2022-10-30T04:02:50;15.40;99.90
20479;DHT22;10398;52.490;13.434;2022-10-30T04:05:18;15.30;99.90
20479;DHT22;10398;52.490;13.434;2022-10-30T04:07:44;15.30;99.90
20479;DHT22;10398;52.490;13.434;2022-10-30T04:10:10;15.40;99.90
20479;DHT22;10398;52.490;13.434;2022-10-30T04:12:37;15.50;99.90
20479;DHT22;10398;52.490;13.434;2022-10-30T04:15:03;15.50;99.90
20479;DHT22;10398;52.490;13.434;2022-10-30T04:17:29;15.50;99.90
20479;DHT22;10398;52.490;13.434;2022-10-30T04:19:54;15.50;99.90
20479;DHT22;10398;52.490;13.434;2022-10-30T04:22:22;15.50;99.90
20479;DHT22;10398;52.490;13.434;2022-10-30T04:24:48;15.50;99.90
20479;DHT22;10398;52.490;13.434;2022-10-30T04:27:15;15.60;99.90
20479;DHT22;10398;52.490;13.434;2022-10-30T04:29:40;15.50;99.90
20479;DHT22;10398;52.490;13.434;2022-10-30T04:32:09;15.70;99.90
20479;DHT22;10398;52.490;13.434;2022-10-30T04:34:35;15.70;99.90
20479;DHT22;10398;52.490;13.434;2022-10-30T04:37:00;15.80;99.90
20479;DHT22;10398;52.490;13.434;2022-10-30T04:39:26;15.70;99.90
20479;DHT22;10398;52.490;13.434;2022-10-30T04:41:52;15.70;99.90
20479;DHT22;10398;52.490;13.434;2022-10-30T04:44:17;15.70;99.90
20479;DHT22;10398;52.490;13.434;2022-10-30T04:46:43;15.70;99.90
20479;DHT22;10398;52.490;13.434;2022-10-30T04:49:08;15.80;99.90
20479;DHT22;10398;52.490;13.434;2022-10-30T04:51:34;15.80;99.90
20479;DHT22;10398;52.490;13.434;2022-10-30T04:54:00;15.80;99.90
20479;DHT22;10398;52.490;13.434;2022-10-30T04:56:25;15.80;99.90
20479;DHT22;10398;52.490;13.434;2022-10-30T04:58:51;15.70;99.90
20479;DHT22;10398;52.490;13.434;2022-10-30T05:01:18;15.60;99.90
20479;DHT22;10398;52.490;13.434;2022-10-30T05:03:43;15.60;99.90
20479;DHT22;10398;52.490;13.434;2022-10-30T05:06:21;15.50;99.90
20479;DHT22;10398;52.490;13.434;2022-10-30T05:08:47;15.40;99.90
20479;DHT22;10398;52.490;13.434;2022-10-30T05:11:13;15.30;99.90
20479;DHT22;10398;52.490;13.434;2022-10-30T05:13:39;15.30;99.90
20479;DHT22;10398;52.490;13.434;2022-10-30T05:16:05;15.30;99.90
20479;DHT22;10398;52.490;13.434;2022-10-30T05:18:30;15.40;99.90
20479;DHT22;10398;52.490;13.434;2022-10-30T05:20:56;15.30;99.90
20479;DHT22;10398;52.490;13.434;2022-10-30T05:23:22;15.40;99.90
20479;DHT22;10398;52.490;13.434;2022-10-30T05:25:47;15.40;99.90
20479;DHT22;10398;52.490;13.434;2022-10-30T05:28:13;15.40;99.90
20479;DHT22;10398;52.490;13.434;2022-10-30T05:30:38;15.40;99.90
20479;DHT22;10398;52.490;13.434;2022-10-30T05:33:06;15.30;99.90
20479;DHT22;10398;52.490;13.434;2022-10-30T05:35:33;15.30;99.90
20479;DHT22;10398;52.490;13.434;2022-10-30T05:38:00;15.30;99.90
20479;DHT22;10398;52.490;13.434;2022-10-30T05:40:26;15.30;99.90
20479;DHT22;10398;52.490;13.434;2022-10-30T05:42:52;15.20;99.90
20479;DHT22;10398;52.490;13.434;2022-10-30T05:45:18;15.30;99.90
20479;DHT22;10398;52.490;13.434;2022-10-30T05:47:43;15.20;99.90
20479;DHT22;10398;52.490;13.434;2022-10-30T05:50:10;15.20;99.90
20479;DHT22;10398;52.490;13.434;2022-10-30T05:52:38;15.20;99.90
20479;DHT22;10398;52.490;13.434;2022-10-30T05:55:04;15.30;99.90
20479;DHT22;10398;52.490;13.434;2022-10-30T05:57:29;15.40;99.90
20479;DHT22;10398;52.490;13.434;2022-10-30T05:59:57;15.40;99.90
20479;DHT22;10398;52.490;13.434;2022-10-30T06:02:23;15.30;99.90
20479;DHT22;10398;52.490;13.434;2022-10-30T06:04:48;15.30;99.90
20479;DHT22;10398;52.490;13.434;2022-10-30T06:07:14;15.30;99.90
20479;DHT22;10398;52.490;13.434;2022-10-30T06:09:39;15.40;99.90
20479;DHT22;10398;52.490;13.434;2022-10-30T06:12:05;15.30;99.90
20479;DHT22;10398;52.490;13.434;2022-10-30T06:14:31;15.30;99.90
20479;DHT22;10398;52.490;13.434;2022-10-30T06:16:56;15.40;99.90
20479;DHT22;10398;52.490;13.434;2022-10-30T06:19:22;15.50;99.90
20479;DHT22;10398;52.490;13.434;2022-10-30T06:21:48;15.60;99.90
20479;DHT22;10398;52.490;13.434;2022-10-30T06:24:13;15.70;99.90
20479;DHT22;10398;52.490;13.434;2022-10-30T06:26:39;15.70;99.90
20479;DHT22;10398;52.490;13.434;2022-10-30T06:29:04;15.70;99.90
20479;DHT22;10398;52.490;13.434;2022-10-30T06:31:30;15.60;99.90
20479;DHT22;10398;52.490;13.434;2022-10-30T06:33:56;15.60;99.90
20479;DHT22;10398;52.490;13.434;2022-10-30T06:36:21;15.60;99.90
20479;DHT22;10398;52.490;13.434;2022-10-30T06:38:47;15.60;99.90
20479;DHT22;10398;52.490;13.434;2022-10-30T06:41:13;15.50;99.90
20479;DHT22;10398;52.490;13.434;2022-10-30T06:43:38;15.50;99.90
20479;DHT22;10398;52.490;13.434;2022-10-30T06:46:04;15.40;99.90
20479;DHT22;10398;52.490;13.434;2022-10-30T06:48:29;15.50;99.90
20479;DHT22;10398;52.490;13.434;2022-10-30T06:50:56;15.50;99.90
20479;DHT22;10398;52.490;13.434;2022-10-30T06:53:22;15.60;99.90
20479;DHT22;10398;52.490;13.434;2022-10-30T06:55:55;15.70;99.90
20479;DHT22;10398;52.490;13.434;2022-10-30T06:58:21;15.70;99.90
20479;DHT22;10398;52.490;13.434;2022-10-30T07:00:47;15.80;99.90
20479;DHT22;10398;52.490;13.434;2022-10-30T07:03:13;15.80;99.90
20479;DHT22;10398;52.490;13.434;2022-10-30T07:05:38;15.70;99.90
20479;DHT22;10398;52.490;13.434;2022-10-30T07:08:04;15.70;99.90
20479;DHT22;10398;52.490;13.434;2022-10-30T07:10:30;15.70;99.90
20479;DHT22;10398;52.490;13.434;2022-10-30T07:12:56;15.70;99.90
20479;DHT22;10398;52.490;13.434;2022-10-30T07:15:22;15.70;99.90
20479;DHT22;10398;52.490;13.434;2022-10-30T07:17:59;15.80;99.90
20479;DHT22;10398;52.490;13.434;2022-10-30T07:20:26;15.80;99.90
20479;DHT22;10398;52.490;13.434;2022-10-30T07:22:52;15.90;99.90
20479;DHT22;10398;52.490;13.434;2022-10-30T07:25:19;15.90;99.90
20479;DHT22;10398;52.490;13.434;2022-10-30T07:27:46;15.90;99.90
20479;DHT22;10398;52.490;13.434;2022-10-30T07:30:14;15.90;99.90
20479;DHT22;10398;52.490;13.434;2022-10-30T07:32:40;15.80;99.90
20479;DHT22;10398;52.490;13.434;2022-10-30T07:35:06;15.90;99.90
20479;DHT22;10398;52.490;13.434;2022-10-30T07:37:32;15.90;99.90
20479;DHT22;10398;52.490;13.434;2022-10-30T07:39:58;16.00;99.90
20479;DHT22;10398;52.490;13.434;2022-10-30T07:42:23;16.10;99.90
20479;DHT22;10398;52.490;13.434;2022-10-30T07:44:49;16.20;99.90
20479;DHT22;10398;52.490;13.434;2022-10-30T07:47:16;16.30;99.90
20479;DHT22;10398;52.490;13.434;2022-10-30T07:49:42;16.40;99.90
20479;DHT22;10398;52.490;13.434;2022-10-30T07:52:07;16.50;99.90
20479;DHT22;10398;52.490;13.434;2022-10-30T07:54:33;16.60;99.90
20479;DHT22;10398;52.490;13.434;2022-10-30T07:56:58;16.70;99.90
20479;DHT22;10398;52.490;13.434;2022-10-30T07:59:25;16.70;99.90
20479;DHT22;10398;52.490;13.434;2022-10-30T08:01:50;16.80;99.90
20479;DHT22;10398;52.490;13.434;2022-10-30T08:04:16;16.90;99.90
20479;DHT22;10398;52.490;13.434;2022-10-30T08:06:42;17.00;99.90
20479;DHT22;10398;52.490;13.434;2022-10-30T08:09:08;17.10;99.90
20479;DHT22;10398;52.490;13.434;2022-10-30T08:11:35;17.20;99.90
20479;DHT22;10398;52.490;13.434;2022-10-30T08:14:00;17.30;99.90
20479;DHT22;10398;52.490;13.434;2022-10-30T08:16:26;17.40;99.90
20479;DHT22;10398;52.490;13.434;2022-10-30T08:18:52;17.40;99.90
20479;DHT22;10398;52.490;13.434;2022-10-30T08:21:18;17.40;99.90
20479;DHT22;10398;52.490;13.434;2022-10-30T08:23:43;17.40;99.90
20479;DHT22;10398;52.490;13.434;2022-10-30T08:26:09;17.50;99.90
20479;DHT22;10398;52.490;13.434;2022-10-30T08:28:35;17.50;99.90
20479;DHT22;10398;52.490;13.434;2022-10-30T08:31:00;17.50;99.90
20479;DHT22;10398;52.490;13.434;2022-10-30T08:33:27;17.50;99.90
20479;DHT22;10398;52.490;13.434;2022-10-30T08:35:55;17.60;99.90
20479;DHT22;10398;52.490;13.434;2022-10-30T08:38:21;17.70;99.90
20479;DHT22;10398;52.490;13.434;2022-10-30T08:40:47;17.80;99.90
20479;DHT22;10398;52.490;13.434;2022-10-30T08:43:13;17.90;99.90
20479;DHT22;10398;52.490;13.434;2022-10-30T08:45:40;18.00;99.90
20479;DHT22;10398;52.490;13.434;2022-10-30T08:48:07;18.00;99.90
20479;DHT22;10398;52.490;13.434;2022-10-30T08:50:34;18.00;99.90
20479;DHT22;10398;52.490;13.434;2022-10-30T08:53:05;18.10;99.90
20479;DHT22;10398;52.490;13.434;2022-10-30T08:55:32;18.20;99.90
20479;DHT22;10398;52.490;13.434;2022-10-30T08:57:58;18.20;99.90
20479;DHT22;10398;52.490;13.434;2022-10-30T09:00:24;18.40;99.90
20479;DHT22;10398;52.490;13.434;2022-10-30T09:02:50;18.60;99.90
20479;DHT22;10398;52.490;13.434;2022-10-30T09:05:16;18.60;99.90
20479;DHT22;10398;52.490;13.434;2022-10-30T09:07:42;18.70;99.90
20479;DHT22;10398;52.490;13.434;2022-10-30T09:10:07;18.90;99.90
20479;DHT22;10398;52.490;13.434;2022-10-30T09:12:33;19.10;99.90
20479;DHT22;10398;52.490;13.434;2022-10-30T09:14:59;19.10;99.90
20479;DHT22;10398;52.490;13.434;2022-10-30T09:17:25;19.20;99.90
20479;DHT22;10398;52.490;13.434;2022-10-30T09:19:51;19.20;99.90
20479;DHT22;10398;52.490;13.434;2022-10-30T09:22:17;19.20;99.90
20479;DHT22;10398;52.490;13.434;2022-10-30T09:24:42;19.20;99.90
20479;DHT22;10398;52.490;13.434;2022-10-30T09:27:08;19.20;99.90
20479;DHT22;10398;52.490;13.434;2022-10-30T09:29:34;19.30;99.90
20479;DHT22;10398;52.490;13.434;2022-10-30T09:32:00;19.50;99.90
20479;DHT22;10398;52.490;13.434;2022-10-30T09:34:26;19.70;99.90
20479;DHT22;10398;52.490;13.434;2022-10-30T09:36:52;20.10;99.90
20479;DHT22;10398;52.490;13.434;2022-10-30T09:39:18;20.30;99.90
20479;DHT22;10398;52.490;13.434;2022-10-30T09:55:50;22.10;99.90
20479;DHT22;10398;52.490;13.434;2022-10-30T10:00:52;22.80;99.90
20479;DHT22;10398;52.490;13.434;2022-10-30T10:06:11;23.30;99.90
20479;DHT22;10398;52.490;13.434;2022-10-30T10:08:43;23.60;99.90
20479;DHT22;10398;52.490;13.434;2022-10-30T10:13:59;23.80;99.90
20479;DHT22;10398;52.490;13.434;2022-10-30T10:16:32;23.90;99.90
20479;DHT22;10398;52.490;13.434;2022-10-30T10:19:19;23.90;99.90
20479;DHT22;10398;52.490;13.434;2022-10-30T10:22:28;24.10;99.90
20479;DHT22;10398;52.490;13.434;2022-10-30T10:24:51;24.20;99.90
20479;DHT22;10398;52.490;13.434;2022-10-30T10:49:49;25.40;99.90
20479;DHT22;10398;52.490;13.434;2022-10-30T10:52:12;25.40;99.90
20479;DHT22;10398;52.490;13.434;2022-10-30T10:54:44;25.50;99.90
20479;DHT22;10398;52.490;13.434;2022-10-30T10:57:17;25.50;99.90
20479;DHT22;10398;52.490;13.434;2022-10-30T10:59:52;25.50;99.90
20479;DHT22;10398;52.490;13.434;2022-10-30T11:05:00;25.40;99.90
20479;DHT22;10398;52.490;13.434;2022-10-30T11:07:30;25.30;99.90
20479;DHT22;10398;52.490;13.434;2022-10-30T11:09:57;25.30;99.90
20479;DHT22;10398;52.490;13.434;2022-10-30T11:12:33;25.30;99.90
20479;DHT22;10398;52.490;13.434;2022-10-30T11:15:21;25.00;99.90
20479;DHT22;10398;52.490;13.434;2022-10-30T11:18:06;25.00;99.90
20479;DHT22;10398;52.490;13.434;2022-10-30T11:23:44;25.00;99.90
20479;DHT22;10398;52.490;13.434;2022-10-30T11:29:00;25.00;99.90
20479;DHT22;10398;52.490;13.434;2022-10-30T11:31:35;24.90;99.90
20479;DHT22;10398;52.490;13.434;2022-10-30T11:36:42;24.90;99.90
20479;DHT22;10398;52.490;13.434;2022-10-30T11:39:16;24.80;99.90
20479;DHT22;10398;52.490;13.434;2022-10-30T11:44:47;24.90;99.90
20479;DHT22;10398;52.490;13.434;2022-10-30T11:47:14;24.90;99.90
20479;DHT22;10398;52.490;13.434;2022-10-30T11:49:53;25.00;99.90
20479;DHT22;10398;52.490;13.434;2022-10-30T11:52:22;25.10;99.90
20479;DHT22;10398;52.490;13.434;2022-10-30T11:55:25;25.30;99.90
20479;DHT22;10398;52.490;13.434;2022-10-30T11:57:55;25.40;99.90
20479;DHT22;10398;52.490;13.434;2022-10-30T12:00:26;25.50;99.90
20479;DHT22;10398;52.490;13.434;2022-10-30T12:02:54;25.60;99.90
20479;DHT22;10398;52.490;13.434;2022-10-30T12:07:54;25.80;99.90
20479;DHT22;10398;52.490;13.434;2022-10-30T12:10:25;26.10;99.90
20479;DHT22;10398;52.490;13.434;2022-10-30T12:12:51;26.10;99.90
20479;DHT22;10398;52.490;13.434;2022-10-30T12:15:19;26.10;99.90
20479;DHT22;10398;52.490;13.434;2022-10-30T12:17:53;26.10;99.90
20479;DHT22;10398;52.490;13.434;2022-10-30T12:20:19;26.20;99.90
20479;DHT22;10398;52.490;13.434;2022-10-30T12:22:45;26.20;99.90
20479;DHT22;10398;52.490;13.434;2022-10-30T12:27:45;26.50;99.90
20479;DHT22;10398;52.490;13.434;2022-10-30T12:30:18;26.70;99.90
20479;DHT22;10398;52.490;13.434;2022-10-30T12:38:12;27.10;99.40
20479;DHT22;10398;52.490;13.434;2022-10-30T12:40:45;27.30;98.90
20479;DHT22;10398;52.490;13.434;2022-10-30T12:43:24;27.40;98.20
20479;DHT22;10398;52.490;13.434;2022-10-30T12:45:58;27.40;97.70
20479;DHT22;10398;52.490;13.434;2022-10-30T12:48:31;27.50;97.50
20479;DHT22;10398;52.490;13.434;2022-10-30T12:53:39;27.80;97.30
20479;DHT22;10398;52.490;13.434;2022-10-30T12:56:15;27.80;96.30
20479;DHT22;10398;52.490;13.434;2022-10-30T12:58:48;27.60;96.30
20479;DHT22;10398;52.490;13.434;2022-10-30T13:01:22;27.20;96.60
20479;DHT22;10398;52.490;13.434;2022-10-30T13:04:02;27.10;96.80
20479;DHT22;10398;52.490;13.434;2022-10-30T13:06:34;26.90;97.00
20479;DHT22;10398;52.490;13.434;2022-10-30T13:09:26;27.00;96.90
20479;DHT22;10398;52.490;13.434;2022-10-30T13:14:41;26.80;97.10
20479;DHT22;10398;52.490;13.434;2022-10-30T13:17:10;26.80;97.10
20479;DHT22;10398;52.490;13.434;2022-10-30T13:19:38;26.60;97.00
20479;DHT22;10398;52.490;13.434;2022-10-30T13:22:11;26.50;97.40
20479;DHT22;10398;52.490;13.434;2022-10-30T13:27:41;26.20;97.50
20479;DHT22;10398;52.490;13.434;2022-10-30T13:30:30;26.20;97.70
20479;DHT22;10398;52.490;13.434;2022-10-30T13:33:10;26.00;97.80
20479;DHT22;10398;52.490;13.434;2022-10-30T13:35:58;25.90;98.30
20479;DHT22;10398;52.490;13.434;2022-10-30T13:41:44;25.50;98.20
20479;DHT22;10398;52.490;13.434;2022-10-30T13:47:27;25.10;99.10
20479;DHT22;10398;52.490;13.434;2022-10-30T13:50:27;25.00;99.00
20479;DHT22;10398;52.490;13.434;2022-10-30T13:52:57;24.80;99.50
20479;DHT22;10398;52.490;13.434;2022-10-30T13:55:30;24.60;99.80
20479;DHT22;10398;52.490;13.434;2022-10-30T13:58:25;24.50;99.90
20479;DHT22;10398;52.490;13.434;2022-10-30T14:04:14;24.30;99.90
20479;DHT22;10398;52.490;13.434;2022-10-30T14:20:51;23.60;99.90
20479;DHT22;10398;52.490;13.434;2022-10-30T14:23:22;23.60;99.90
20479;DHT22;10398;52.490;13.434;2022-10-30T14:26:19;23.50;99.90
20479;DHT22;10398;52.490;13.434;2022-10-30T14:28:46;23.40;99.90
20479;DHT22;10398;52.490;13.434;2022-10-30T14:31:15;23.40;99.90
20479;DHT22;10398;52.490;13.434;2022-10-30T14:41:44;23.10;99.90
20479;DHT22;10398;52.490;13.434;2022-10-30T14:44:19;23.10;99.90
20479;DHT22;10398;52.490;13.434;2022-10-30T14:49:59;22.90;99.90
20479;DHT22;10398;52.490;13.434;2022-10-30T15:00:39;22.70;99.90
20479;DHT22;10398;52.490;13.434;2022-10-30T15:05:53;22.60;99.90
20479;DHT22;10398;52.490;13.434;2022-10-30T15:11:24;22.50;99.90
20479;DHT22;10398;52.490;13.434;2022-10-30T15:13:57;22.40;99.90
20479;DHT22;10398;52.490;13.434;2022-10-30T15:16:27;22.30;99.90
20479;DHT22;10398;52.490;13.434;2022-10-30T15:19:03;22.20;99.90
20479;DHT22;10398;52.490;13.434;2022-10-30T15:21:31;22.10;99.90
20479;DHT22;10398;52.490;13.434;2022-10-30T15:23:59;22.00;99.90
20479;DHT22;10398;52.490;13.434;2022-10-30T15:26:32;22.00;99.90
20479;DHT22;10398;52.490;13.434;2022-10-30T15:28:59;21.80;99.90
20479;DHT22;10398;52.490;13.434;2022-10-30T15:31:28;21.60;99.90
20479;DHT22;10398;52.490;13.434;2022-10-30T15:33:54;21.50;99.90
20479;DHT22;10398;52.490;13.434;2022-10-30T15:36:41;21.40;99.90
20479;DHT22;10398;52.490;13.434;2022-10-30T15:39:17;21.30;99.90
20479;DHT22;10398;52.490;13.434;2022-10-30T15:41:51;21.20;99.90
20479;DHT22;10398;52.490;13.434;2022-10-30T15:44:23;21.10;99.90
20479;DHT22;10398;52.490;13.434;2022-10-30T15:46:52;20.90;99.90
20479;DHT22;10398;52.490;13.434;2022-10-30T15:49:35;20.80;99.90
20479;DHT22;10398;52.490;13.434;2022-10-30T15:52:13;20.80;99.90
20479;DHT22;10398;52.490;13.434;2022-10-30T15:54:42;20.70;99.90
20479;DHT22;10398;52.490;13.434;2022-10-30T15:57:27;20.60;99.90
20479;DHT22;10398;52.490;13.434;2022-10-30T15:59:59;20.50;99.90
20479;DHT22;10398;52.490;13.434;2022-10-30T16:02:29;20.40;99.90
20479;DHT22;10398;52.490;13.434;2022-10-30T16:04:54;20.30;99.90
20479;DHT22;10398;52.490;13.434;2022-10-30T16:07:25;20.30;99.90
20479;DHT22;10398;52.490;13.434;2022-10-30T16:09:53;20.30;99.90
20479;DHT22;10398;52.490;13.434;2022-10-30T16:12:19;20.30;99.90
20479;DHT22;10398;52.490;13.434;2022-10-30T16:14:48;20.20;99.90
20479;DHT22;10398;52.490;13.434;2022-10-30T16:17:14;20.20;99.90
20479;DHT22;10398;52.490;13.434;2022-10-30T16:19:45;20.10;99.90
20479;DHT22;10398;52.490;13.434;2022-10-30T16:22:14;20.10;99.90
20479;DHT22;10398;52.490;13.434;2022-10-30T16:24:41;20.00;99.90
20479;DHT22;10398;52.490;13.434;2022-10-30T16:27:14;19.90;99.90
20479;DHT22;10398;52.490;13.434;2022-10-30T16:29:41;19.70;99.90
20479;DHT22;10398;52.490;13.434;2022-10-30T16:32:12;19.60;99.90
20479;DHT22;10398;52.490;13.434;2022-10-30T16:34:40;19.40;99.90
20479;DHT22;10398;52.490;13.434;2022-10-30T16:37:18;19.30;99.90
20479;DHT22;10398;52.490;13.434;2022-10-30T16:39:47;19.30;99.90
20479;DHT22;10398;52.490;13.434;2022-10-30T16:42:22;19.20;99.90
20479;DHT22;10398;52.490;13.434;2022-10-30T16:44:48;19.20;99.90
20479;DHT22;10398;52.490;13.434;2022-10-30T16:49:53;19.20;99.90
20479;DHT22;10398;52.490;13.434;2022-10-30T16:52:25;19.20;99.90
20479;DHT22;10398;52.490;13.434;2022-10-30T16:55:01;19.10;99.90
20479;DHT22;10398;52.490;13.434;2022-10-30T16:57:30;19.00;99.90
20479;DHT22;10398;52.490;13.434;2022-10-30T16:59:58;19.00;99.90
20479;DHT22;10398;52.490;13.434;2022-10-30T17:02:31;19.00;99.90
20479;DHT22;10398;52.490;13.434;2022-10-30T17:07:56;18.90;99.90
20479;DHT22;10398;52.490;13.434;2022-10-30T17:10:56;18.80;99.90
20479;DHT22;10398;52.490;13.434;2022-10-30T17:16:20;18.80;99.90
20479;DHT22;10398;52.490;13.434;2022-10-30T17:18:46;18.80;99.90
20479;DHT22;10398;52.490;13.434;2022-10-30T17:21:17;18.70;99.90
20479;DHT22;10398;52.490;13.434;2022-10-30T17:23:53;18.70;99.90
20479;DHT22;10398;52.490;13.434;2022-10-30T17:26:19;18.60;99.90
20479;DHT22;10398;52.490;13.434;2022-10-30T17:28:46;18.60;99.90
20479;DHT22;10398;52.490;13.434;2022-10-30T17:31:19;18.50;99.90
20479;DHT22;10398;52.490;13.434;2022-10-30T17:33:45;18.40;99.90
20479;DHT22;10398;52.490;13.434;2022-10-30T17:36:11;18.40;99.90
20479;DHT22;10398;52.490;13.434;2022-10-30T17:38:37;18.40;99.90
20479;DHT22;10398;52.490;13.434;2022-10-30T17:41:04;18.30;99.90
20479;DHT22;10398;52.490;13.434;2022-10-30T17:43:34;18.30;99.90
20479;DHT22;10398;52.490;13.434;2022-10-30T17:46:11;18.30;99.90
20479;DHT22;10398;52.490;13.434;2022-10-30T17:48:36;18.20;99.90
20479;DHT22;10398;52.490;13.434;2022-10-30T17:51:02;18.10;99.90
20479;DHT22;10398;52.490;13.434;2022-10-30T17:53:28;18.10;99.90
20479;DHT22;10398;52.490;13.434;2022-10-30T17:56:03;18.00;99.90
20479;DHT22;10398;52.490;13.434;2022-10-30T17:58:29;18.00;99.90